createdAt,value
2019-06-15T00:00:37.804Z,98488.00
2019-06-15T00:03:07.288Z,98483.84
2019-06-15T00:05:36.582Z,98470.63
2019-06-15T00:08:06.051Z,98464.27
2019-06-15T00:10:35.513Z,98459.99
2019-06-15T00:13:05.488Z,98453.19
2019-06-15T00:15:34.692Z,98448.89
2019-06-15T00:18:04.931Z,98444.71
2019-06-15T00:20:34.907Z,98434.88
2019-06-15T00:23:04.134Z,98415.25
2019-06-15T00:25:33.363Z,98413.39
2019-06-15T00:28:02.533Z,98418.97
2019-06-15T00:30:31.729Z,98418.53
2019-06-15T00:33:01.199Z,98412.78
2019-06-15T00:35:30.378Z,98417.09
2019-06-15T00:38:00.599Z,98404.33
2019-06-15T00:40:30.604Z,98395.19
2019-06-15T00:42:59.815Z,98383.03
2019-06-15T00:45:29.294Z,98372.78
2019-06-15T00:47:58.474Z,98367.11
2019-06-15T00:50:27.676Z,98362.80
2019-06-15T00:52:56.846Z,98363.34
2019-06-15T00:55:26.377Z,98360.16
2019-06-15T00:57:55.881Z,98357.99
2019-06-15T01:00:25.339Z,98361.45
2019-06-15T01:02:55.557Z,98369.45
2019-06-15T01:05:25.045Z,98359.44
2019-06-15T01:07:54.212Z,98352.26
2019-06-15T01:10:23.853Z,98358.78
2019-06-15T01:12:53.025Z,98349.58
2019-06-15T01:15:22.912Z,98354.85
2019-06-15T01:17:52.140Z,98347.02
2019-06-15T01:20:21.724Z,98346.22
2019-06-15T01:22:51.258Z,98347.05
2019-06-15T01:25:21.917Z,98344.77
2019-06-15T01:27:51.102Z,98337.27
2019-06-15T01:30:23.065Z,98331.23
2019-06-15T01:32:52.223Z,98325.20
2019-06-15T01:35:22.173Z,98323.02
2019-06-15T01:37:52.051Z,98319.84
2019-06-15T01:40:22.115Z,98325.05
2019-06-15T01:42:51.689Z,98328.67
2019-06-15T01:45:26.738Z,98337.52
2019-06-15T01:47:56.267Z,98330.48
2019-06-15T01:50:25.716Z,98320.42
2019-06-15T01:52:54.910Z,98314.39
2019-06-15T01:55:24.350Z,98303.69
2019-06-15T01:57:54.128Z,98297.12
2019-06-15T02:00:26.067Z,98293.47
2019-06-15T02:02:55.810Z,98290.62
2019-06-15T02:05:25.240Z,98279.77
2019-06-15T02:07:54.441Z,98272.75
2019-06-15T02:10:29.071Z,98277.23
2019-06-15T02:12:58.655Z,98269.56
2019-06-15T02:15:27.825Z,98263.17
2019-06-15T02:17:57.893Z,98260.50
2019-06-15T02:20:27.457Z,98259.14
2019-06-15T02:22:57.414Z,98257.98
2019-06-15T02:25:35.803Z,98260.14
2019-06-15T02:28:00.246Z,98259.64
2019-06-15T02:30:31.044Z,98260.98
2019-06-15T02:33:01.055Z,98264.02
2019-06-15T02:35:31.017Z,98266.53
2019-06-15T02:38:01.239Z,98262.84
2019-06-15T02:40:31.233Z,98258.33
2019-06-15T02:43:00.674Z,98250.13
2019-06-15T02:45:30.233Z,98242.61
2019-06-15T02:48:00.200Z,98245.45
2019-06-15T02:50:29.482Z,98247.71
2019-06-15T02:52:58.981Z,98251.23
2019-06-15T02:55:28.154Z,98246.70
2019-06-15T02:57:57.613Z,98245.03
2019-06-15T03:00:46.390Z,98252.27
2019-06-15T03:03:16.025Z,98254.09
2019-06-15T03:05:45.692Z,98248.91
2019-06-15T03:08:15.189Z,98253.43
2019-06-15T03:10:46.156Z,98242.75
2019-06-15T03:13:15.770Z,98241.72
2019-06-15T03:15:45.557Z,98237.81
2019-06-15T03:18:14.766Z,98232.63
2019-06-15T03:20:44.128Z,98234.30
2019-06-15T03:23:13.664Z,98229.92
2019-06-15T03:25:42.820Z,98231.09
2019-06-15T03:28:12.299Z,98233.23
2019-06-15T03:30:42.483Z,98227.88
2019-06-15T03:33:12.006Z,98221.82
2019-06-15T03:35:41.179Z,98226.70
2019-06-15T03:38:10.353Z,98229.34
2019-06-15T03:40:39.568Z,98230.22
2019-06-15T03:43:09.886Z,98231.73
2019-06-15T03:45:39.427Z,98231.33
2019-06-15T03:48:08.601Z,98228.05
2019-06-15T03:50:37.807Z,98231.39
2019-06-15T03:53:06.982Z,98232.84
2019-06-15T03:55:36.192Z,98241.58
2019-06-15T03:58:05.525Z,98253.45
2019-06-15T04:00:52.230Z,98246.59
2019-06-15T04:03:21.732Z,98246.93
2019-06-15T04:05:50.905Z,98262.80
2019-06-15T04:08:20.091Z,98260.05
2019-06-15T04:10:49.835Z,98263.80
2019-06-15T04:13:19.290Z,98267.38
2019-06-15T04:15:49.041Z,98266.03
2019-06-15T04:18:18.511Z,98273.27
2019-06-15T04:20:48.410Z,98278.13
2019-06-15T04:23:17.590Z,98286.63
2019-06-15T04:25:47.040Z,98277.31
2019-06-15T04:28:16.213Z,98286.36
2019-06-15T04:30:45.422Z,98285.55
2019-06-15T04:33:14.880Z,98288.39
2019-06-15T04:35:44.352Z,98297.30
2019-06-15T04:38:13.877Z,98294.25
2019-06-15T04:40:43.085Z,98306.34
2019-06-15T04:43:12.543Z,98318.16
2019-06-15T04:45:42.033Z,98321.84
2019-06-15T04:48:11.990Z,98326.59
2019-06-15T04:50:41.461Z,98329.70
2019-06-15T04:53:10.626Z,98341.21
2019-06-15T04:55:40.927Z,98348.77
2019-06-15T04:58:10.380Z,98349.27
2019-06-15T05:00:40.358Z,98356.73
2019-06-15T05:03:10.311Z,98358.12
2019-06-15T05:05:39.846Z,98369.72
2019-06-15T05:08:09.298Z,98364.59
2019-06-15T05:10:38.471Z,98369.64
2019-06-15T05:13:08.194Z,98376.68
2019-06-15T05:15:37.866Z,98386.27
2019-06-15T05:18:07.073Z,98399.70
2019-06-15T05:20:36.640Z,98408.67
2019-06-15T05:23:06.161Z,98417.02
2019-06-15T05:25:35.691Z,98426.09
2019-06-15T05:28:04.986Z,98422.58
2019-06-15T05:30:34.185Z,98421.36
2019-06-15T05:33:03.385Z,98429.27
2019-06-15T05:35:32.822Z,98431.70
2019-06-15T05:38:02.046Z,98427.90
2019-06-15T05:40:31.236Z,98434.17
2019-06-15T05:43:01.231Z,98433.77
2019-06-15T05:45:30.367Z,98436.12
2019-06-15T05:47:59.837Z,98435.62
2019-06-15T05:50:29.004Z,98435.79
2019-06-15T05:52:58.188Z,98430.53
2019-06-15T05:55:27.638Z,98441.58
2019-06-15T05:57:56.835Z,98440.11
2019-06-15T06:00:26.609Z,98453.52
2019-06-15T06:02:55.825Z,98461.84
2019-06-15T06:05:24.987Z,98461.88
2019-06-15T06:07:56.000Z,98450.79
2019-06-15T06:10:25.287Z,98453.18
2019-06-15T06:12:54.513Z,98446.10
2019-06-15T06:15:26.685Z,98457.70
2019-06-15T06:17:55.484Z,98461.63
2019-06-15T06:20:25.194Z,98462.42
2019-06-15T06:22:54.400Z,98461.22
2019-06-15T06:25:23.577Z,98470.98
2019-06-15T06:27:53.160Z,98471.98
2019-06-15T06:30:22.439Z,98480.16
2019-06-15T06:32:51.991Z,98468.66
2019-06-15T06:35:21.176Z,98485.77
2019-06-15T06:37:50.683Z,98485.39
2019-06-15T06:40:20.247Z,98496.64
2019-06-15T06:42:49.431Z,98512.23
2019-06-15T06:45:18.621Z,98516.04
2019-06-15T06:47:48.210Z,98528.02
2019-06-15T06:50:18.212Z,98521.91
2019-06-15T06:52:47.422Z,98524.92
2019-06-15T06:55:16.799Z,98541.61
2019-06-15T06:57:53.323Z,98543.02
2019-06-15T07:00:19.213Z,98547.38
2019-06-15T07:02:48.569Z,98559.95
2019-06-15T07:05:18.820Z,98561.28
2019-06-15T07:07:49.637Z,98572.15
2019-06-15T07:10:19.710Z,98578.19
2019-06-15T07:12:49.199Z,98577.73
2019-06-15T07:15:22.877Z,98568.07
2019-06-15T07:17:59.436Z,98582.16
2019-06-15T07:20:28.919Z,98575.97
2019-06-15T07:22:59.187Z,98585.72
2019-06-15T07:25:28.760Z,98570.48
2019-06-15T07:28:08.396Z,98573.64
2019-06-15T07:30:36.634Z,98585.57
2019-06-15T07:33:05.906Z,98577.17
2019-06-15T07:35:35.266Z,98589.41
2019-06-15T07:38:04.821Z,98600.54
2019-06-15T07:40:34.344Z,98595.06
2019-06-15T07:43:03.544Z,98592.48
2019-06-15T07:45:40.126Z,98598.28
2019-06-15T07:48:10.297Z,98608.84
2019-06-15T07:50:39.514Z,98602.98
2019-06-15T07:53:08.970Z,98609.31
2019-06-15T07:55:38.684Z,98605.80
2019-06-15T07:58:21.056Z,98611.83
2019-06-15T08:00:39.063Z,98618.34
2019-06-15T08:03:08.266Z,98623.41
2019-06-15T08:05:37.752Z,98622.69
2019-06-15T08:08:06.955Z,98626.28
2019-06-15T08:10:36.164Z,98632.88
2019-06-15T08:13:05.334Z,98640.59
2019-06-15T08:15:34.525Z,98650.95
2019-06-15T08:18:03.720Z,98653.00
2019-06-15T08:20:34.357Z,98665.45
2019-06-15T08:23:03.517Z,98664.39
2019-06-15T08:25:32.741Z,98674.23
2019-06-15T08:28:02.963Z,98686.17
2019-06-15T08:30:40.181Z,98679.62
2019-06-15T08:33:09.348Z,98683.02
2019-06-15T08:35:38.544Z,98674.98
2019-06-15T08:38:07.733Z,98698.67
2019-06-15T08:40:37.030Z,98695.74
2019-06-15T08:43:06.427Z,98707.14
2019-06-15T08:45:35.616Z,98711.70
2019-06-15T08:48:05.175Z,98712.02
2019-06-15T08:50:34.385Z,98706.89
2019-06-15T08:53:03.599Z,98695.31
2019-06-15T08:55:32.840Z,98718.22
2019-06-15T08:58:02.015Z,98712.25
2019-06-15T09:00:31.510Z,98707.03
2019-06-15T09:03:00.678Z,98740.48
2019-06-15T09:05:30.150Z,98716.71
2019-06-15T09:07:59.861Z,98754.80
2019-06-15T09:10:29.108Z,98725.49
2019-06-15T09:12:58.450Z,98736.77
2019-06-15T09:15:37.904Z,98733.20
2019-06-15T09:18:08.648Z,98735.69
2019-06-15T09:20:44.498Z,98739.80
2019-06-15T09:23:14.620Z,98735.76
2019-06-15T09:25:46.531Z,98737.00
2019-06-15T09:28:37.045Z,98733.42
2019-06-15T09:31:06.340Z,98731.38
2019-06-15T09:33:37.506Z,98726.88
2019-06-15T09:36:06.996Z,98731.37
2019-06-15T09:38:37.684Z,98720.59
2019-06-15T09:41:07.273Z,98720.10
2019-06-15T09:43:36.439Z,98732.91
2019-06-15T09:46:05.650Z,98737.16
2019-06-15T09:48:34.848Z,98740.67
2019-06-15T09:51:04.054Z,98744.80
2019-06-15T09:53:33.217Z,98750.97
2019-06-15T09:56:02.499Z,98753.35
2019-06-15T09:58:31.698Z,98756.23
2019-06-15T10:01:00.873Z,98757.66
2019-06-15T10:03:30.108Z,98760.55
2019-06-15T10:05:59.238Z,98770.02
2019-06-15T10:08:28.450Z,98759.77
2019-06-15T10:10:57.605Z,98770.69
2019-06-15T10:13:26.829Z,98771.69
2019-06-15T10:15:56.017Z,98785.26
2019-06-15T10:18:25.283Z,98786.56
2019-06-15T10:20:54.489Z,98783.98
2019-06-15T10:23:23.695Z,98784.64
2019-06-15T10:25:54.243Z,98803.36
2019-06-15T10:28:23.864Z,98803.36
2019-06-15T10:30:53.386Z,98803.50
2019-06-15T10:33:23.552Z,98795.28
2019-06-15T10:35:52.707Z,98803.33
2019-06-15T10:38:33.543Z,98794.83
2019-06-15T10:41:18.967Z,98806.73
2019-06-15T10:44:11.330Z,98802.75
2019-06-15T10:46:42.243Z,98808.73
2019-06-15T10:49:12.370Z,98813.47
2019-06-15T10:51:47.958Z,98814.19
2019-06-15T10:54:17.811Z,98811.67
2019-06-15T10:56:47.460Z,98825.11
2019-06-15T10:59:19.088Z,98828.34
2019-06-15T11:01:48.507Z,98823.19
2019-06-15T11:04:17.731Z,98827.63
2019-06-15T11:06:48.253Z,98831.16
2019-06-15T11:09:18.662Z,98838.53
2019-06-15T11:11:48.346Z,98823.96
2019-06-15T11:14:17.945Z,98819.02
2019-06-15T11:16:47.167Z,98828.27
2019-06-15T11:19:16.662Z,98848.46
2019-06-15T11:21:45.832Z,98836.53
2019-06-15T11:24:15.573Z,98836.53
2019-06-15T11:26:44.775Z,98845.64
2019-06-15T11:29:13.957Z,98821.02
2019-06-15T11:31:43.330Z,98821.02
2019-06-15T11:34:12.516Z,98830.84
2019-06-15T11:36:41.686Z,98829.67
2019-06-15T11:39:11.144Z,98829.30
2019-06-15T11:41:40.592Z,98827.98
2019-06-15T11:44:10.534Z,98834.77
2019-06-15T11:46:40.499Z,98823.38
2019-06-15T11:49:09.736Z,98838.64
2019-06-15T11:51:40.224Z,98839.80
2019-06-15T11:54:09.395Z,98837.38
2019-06-15T11:56:39.143Z,98827.78
2019-06-15T11:59:08.647Z,98833.48
2019-06-15T12:01:38.209Z,98828.25
2019-06-15T12:04:07.364Z,98838.38
2019-06-15T12:06:36.601Z,98829.44
2019-06-15T12:09:08.147Z,98825.27
2019-06-15T12:11:37.365Z,98831.84
2019-06-15T12:14:06.533Z,98830.79
2019-06-15T12:16:36.558Z,98841.45
2019-06-15T12:19:05.848Z,98846.62
2019-06-15T12:21:35.316Z,98848.89
2019-06-15T12:24:04.524Z,98854.55
2019-06-15T12:26:33.803Z,98856.74
2019-06-15T12:29:02.987Z,98844.45
2019-06-15T12:31:32.196Z,98854.22
2019-06-15T12:34:01.520Z,98846.98
2019-06-15T12:36:32.237Z,98843.88
2019-06-15T12:39:02.251Z,98844.89
2019-06-15T12:41:32.490Z,98863.88
2019-06-15T12:44:02.818Z,98848.47
2019-06-15T12:46:32.354Z,98850.89
2019-06-15T12:49:01.875Z,98845.75
2019-06-15T12:51:31.073Z,98849.66
2019-06-15T12:54:00.532Z,98845.58
2019-06-15T12:56:29.745Z,98836.16
2019-06-15T12:58:58.936Z,98841.57
2019-06-15T13:01:28.509Z,98846.72
2019-06-15T13:03:57.760Z,98848.91
2019-06-15T13:06:27.317Z,98848.27
2019-06-15T13:08:56.507Z,98854.06
2019-06-15T13:11:25.774Z,98844.52
2019-06-15T13:13:55.021Z,98858.24
2019-06-15T13:16:38.637Z,98863.68
2019-06-15T13:18:55.106Z,98864.56
2019-06-15T13:21:24.559Z,98866.64
2019-06-15T13:23:53.751Z,98868.84
2019-06-15T13:26:23.300Z,98863.30
2019-06-15T13:28:52.476Z,98866.55
2019-06-15T13:31:21.643Z,98865.83
2019-06-15T13:33:51.418Z,98873.66
2019-06-15T13:36:20.666Z,98875.03
2019-06-15T13:38:49.962Z,98872.40
2019-06-15T13:41:23.768Z,98879.55
2019-06-15T13:43:53.534Z,98884.02
2019-06-15T13:46:22.708Z,98883.95
2019-06-15T13:48:51.914Z,98886.28
2019-06-15T13:51:32.785Z,98883.64
2019-06-15T13:54:16.887Z,98897.77
2019-06-15T13:56:46.502Z,98887.72
2019-06-15T13:59:16.088Z,98897.52
2019-06-15T14:01:45.271Z,98893.29
2019-06-15T14:04:14.708Z,98896.55
2019-06-15T14:06:44.013Z,98901.45
2019-06-15T14:09:13.216Z,98905.20
2019-06-15T14:11:42.446Z,98905.20
2019-06-15T14:14:11.690Z,98907.62
2019-06-15T14:16:41.229Z,98908.73
2019-06-15T14:19:11.530Z,98904.80
2019-06-15T14:21:41.254Z,98921.56
2019-06-15T14:24:10.455Z,98922.25
2019-06-15T14:26:39.656Z,98920.23
2019-06-15T14:29:09.205Z,98917.87
2019-06-15T14:31:49.681Z,98924.63
2019-06-15T14:34:09.424Z,98920.94
2019-06-15T14:36:38.891Z,98920.67
2019-06-15T14:39:08.102Z,98917.53
2019-06-15T14:41:49.933Z,98922.72
2019-06-15T14:44:44.798Z,98917.52
2019-06-15T14:47:33.226Z,98913.11
2019-06-15T14:50:03.674Z,98917.14
2019-06-15T14:52:33.281Z,98909.61
2019-06-15T14:55:02.476Z,98915.29
2019-06-15T14:57:31.652Z,98914.88
2019-06-15T15:00:05.041Z,98919.70
2019-06-15T15:02:32.526Z,98927.71
2019-06-15T15:05:01.740Z,98922.92
2019-06-15T15:07:31.194Z,98919.13
2019-06-15T15:10:07.216Z,98921.25
2019-06-15T15:12:41.860Z,98919.98
2019-06-15T15:15:16.895Z,98914.67
2019-06-15T15:17:48.868Z,98912.66
2019-06-15T15:20:18.454Z,98911.22
2019-06-15T15:22:56.866Z,98908.72
2019-06-15T15:25:31.125Z,98903.28
2019-06-15T15:28:03.110Z,98909.86
2019-06-15T15:30:42.228Z,98902.62
2019-06-15T15:33:11.913Z,98900.56
2019-06-15T15:35:42.054Z,98907.43
2019-06-15T15:38:11.564Z,98902.64
2019-06-15T15:40:40.760Z,98901.19
2019-06-15T15:43:09.955Z,98895.50
2019-06-15T15:45:39.149Z,98888.02
2019-06-15T15:48:08.330Z,98892.39
2019-06-15T15:50:40.596Z,98890.42
2019-06-15T15:53:30.319Z,98886.57
2019-06-15T15:56:16.976Z,98894.08
2019-06-15T15:59:16.118Z,98894.06
2019-06-15T16:01:46.201Z,98898.06
2019-06-15T16:04:17.996Z,98893.96
2019-06-15T16:06:48.943Z,98900.52
2019-06-15T16:09:19.291Z,98892.47
2019-06-15T16:11:48.492Z,98898.50
2019-06-15T16:14:17.652Z,98900.89
2019-06-15T16:16:48.575Z,98895.74
2019-06-15T16:19:53.487Z,98893.95
2019-06-15T16:22:26.163Z,98890.31
2019-06-15T16:24:56.587Z,98900.66
2019-06-15T16:27:46.302Z,98887.95
2019-06-15T16:30:39.553Z,98899.74
2019-06-15T16:33:03.119Z,98887.17
2019-06-15T16:35:27.008Z,98879.52
2019-06-15T16:37:55.895Z,98885.84
2019-06-15T16:40:31.094Z,98876.92
2019-06-15T16:43:00.531Z,98881.64
2019-06-15T16:45:30.259Z,98882.73
2019-06-15T16:48:16.752Z,98881.95
2019-06-15T16:51:01.594Z,98879.97
2019-06-15T16:53:52.260Z,98889.14
2019-06-15T16:56:37.675Z,98887.91
2019-06-15T16:59:24.455Z,98895.74
2019-06-15T17:01:56.136Z,98894.48
2019-06-15T17:04:37.301Z,98895.16
2019-06-15T17:07:07.941Z,98896.38
2019-06-15T17:09:41.764Z,98899.33
2019-06-15T17:12:10.972Z,98892.27
2019-06-15T17:14:40.226Z,98901.80
2019-06-15T17:17:11.373Z,98889.44
2019-06-15T17:19:42.941Z,98883.10
2019-06-15T17:22:18.713Z,98883.19
2019-06-15T17:24:45.989Z,98881.95
2019-06-15T17:27:17.046Z,98871.91
2019-06-15T17:29:47.321Z,98877.94
2019-06-15T17:32:17.142Z,98876.47
2019-06-15T17:34:47.066Z,98886.25
2019-06-15T17:37:17.260Z,98886.83
2019-06-15T17:39:47.295Z,98879.80
2019-06-15T17:42:16.704Z,98886.16
2019-06-15T17:44:46.284Z,98880.68
2019-06-15T17:47:17.004Z,98877.97
2019-06-15T17:49:46.898Z,98871.38
2019-06-15T17:52:16.857Z,98879.08
2019-06-15T17:54:46.673Z,98877.02
2019-06-15T17:57:16.022Z,98884.16
2019-06-15T17:59:47.027Z,98886.47
2019-06-15T18:02:17.161Z,98891.73
2019-06-15T18:04:47.502Z,98892.30
2019-06-15T18:07:17.018Z,98900.06
2019-06-15T18:09:46.690Z,98894.80
2019-06-15T18:12:17.727Z,98886.62
2019-06-15T18:14:46.939Z,98889.73
2019-06-15T18:17:17.328Z,98891.13
2019-06-15T18:19:47.142Z,98884.34
2019-06-15T18:22:17.160Z,98883.87
2019-06-15T18:24:46.811Z,98886.59
2019-06-15T18:27:17.684Z,98887.64
2019-06-15T18:29:47.346Z,98886.08
2019-06-15T18:32:17.120Z,98886.70
2019-06-15T18:34:46.654Z,98888.55
2019-06-15T18:37:17.309Z,98887.23
2019-06-15T18:39:46.930Z,98883.28
2019-06-15T18:42:16.596Z,98876.78
2019-06-15T18:44:47.884Z,98881.13
2019-06-15T18:47:17.323Z,98878.34
2019-06-15T18:49:56.087Z,98875.55
2019-06-15T18:52:26.500Z,98878.16
2019-06-15T18:54:58.931Z,98883.13
2019-06-15T18:57:29.097Z,98890.09
2019-06-15T18:59:58.335Z,98891.06
2019-06-15T19:02:29.478Z,98903.27
2019-06-15T19:04:59.503Z,98904.23
2019-06-15T19:07:28.778Z,98904.42
2019-06-15T19:09:58.533Z,98910.66
2019-06-15T19:12:28.541Z,98914.51
2019-06-15T19:15:01.023Z,98910.70
2019-06-15T19:17:30.411Z,98914.94
2019-06-15T19:19:59.977Z,98920.86
2019-06-15T19:22:29.153Z,98928.91
2019-06-15T19:24:59.388Z,98923.31
2019-06-15T19:27:31.144Z,98933.69
2019-06-15T19:30:05.983Z,98920.17
2019-06-15T19:32:36.868Z,98929.13
2019-06-15T19:35:06.475Z,98933.68
2019-06-15T19:37:37.058Z,98934.84
2019-06-15T19:40:07.458Z,98942.86
2019-06-15T19:42:36.826Z,98943.52
2019-06-15T19:45:10.178Z,98943.38
2019-06-15T19:47:50.143Z,98945.84
2019-06-15T19:50:19.322Z,98945.19
2019-06-15T19:52:48.861Z,98929.56
2019-06-15T19:55:19.871Z,98944.98
2019-06-15T19:57:49.091Z,98954.44
2019-06-15T20:00:18.644Z,98953.51
2019-06-15T20:03:07.323Z,98953.51
2019-06-15T20:05:37.487Z,98964.47
2019-06-15T20:08:08.238Z,98964.47
2019-06-15T20:10:37.691Z,98964.68
2019-06-15T20:13:08.551Z,98969.12
2019-06-15T20:15:39.786Z,98969.14
2019-06-15T20:18:09.883Z,98979.08
2019-06-15T20:20:56.345Z,98982.13
2019-06-15T20:23:28.904Z,98986.47
2019-06-15T20:25:58.172Z,98998.12
2019-06-15T20:28:27.804Z,98998.12
2019-06-15T20:30:57.262Z,98994.23
2019-06-15T20:33:26.761Z,99002.16
2019-06-15T20:35:57.606Z,99007.19
2019-06-15T20:38:27.112Z,99009.22
2019-06-15T20:40:56.633Z,99014.58
2019-06-15T20:43:27.416Z,99018.62
2019-06-15T20:45:57.039Z,99018.59
2019-06-15T20:48:28.617Z,99018.51
2019-06-15T20:51:10.285Z,99019.38
2019-06-15T20:53:46.076Z,99021.53
2019-06-15T20:56:17.723Z,99021.87
2019-06-15T20:58:48.230Z,99033.57
2019-06-15T21:01:17.598Z,99038.73
2019-06-15T21:04:07.582Z,99029.66
2019-06-15T21:06:43.023Z,99025.92
2019-06-15T21:09:15.685Z,99027.88
2019-06-15T21:11:43.302Z,99033.73
2019-06-15T21:14:12.568Z,99040.41
2019-06-15T21:16:42.418Z,99050.55
2019-06-15T21:19:11.630Z,99053.25
2019-06-15T21:21:41.137Z,99050.72
2019-06-15T21:24:10.725Z,99050.50
2019-06-15T21:26:39.947Z,99046.69
2019-06-15T21:29:09.882Z,99037.38
2019-06-15T21:31:47.662Z,99047.21
2019-06-15T21:34:16.917Z,99050.07
2019-06-15T21:36:46.163Z,99054.74
2019-06-15T21:39:15.368Z,99056.78
2019-06-15T21:41:46.245Z,99049.80
2019-06-15T21:44:16.798Z,99054.19
2019-06-15T21:46:46.809Z,99065.29
2019-06-15T21:49:16.084Z,99076.69
2019-06-15T21:51:47.505Z,99080.88
2019-06-15T21:54:18.207Z,99075.58
2019-06-15T21:56:49.615Z,99070.71
2019-06-15T21:59:37.113Z,99083.16
2019-06-15T22:02:07.370Z,99082.70
2019-06-15T22:04:37.041Z,99097.30
2019-06-15T22:07:16.920Z,99092.12
2019-06-15T22:09:46.937Z,99102.63
2019-06-15T22:12:17.435Z,99101.77
2019-06-15T22:14:46.738Z,99102.58
2019-06-15T22:17:16.799Z,99104.23
2019-06-15T22:19:47.285Z,99100.67
2019-06-15T22:22:16.565Z,99104.58
2019-06-15T22:24:47.499Z,99109.78
2019-06-15T22:27:17.157Z,99106.73
2019-06-15T22:29:47.379Z,99112.25
2019-06-15T22:32:16.938Z,99122.78
2019-06-15T22:34:47.090Z,99118.40
2019-06-15T22:37:17.308Z,99114.39
2019-06-15T22:39:47.422Z,99112.23
2019-06-15T22:42:17.188Z,99113.70
2019-06-15T22:44:47.997Z,99101.98
2019-06-15T22:47:18.001Z,99105.47
2019-06-15T22:49:47.962Z,99107.96
2019-06-15T22:52:18.309Z,99108.94
2019-06-15T22:54:48.956Z,99108.67
2019-06-15T22:57:19.798Z,99116.01
2019-06-15T22:59:49.273Z,99122.75
2019-06-15T23:02:18.474Z,99129.12
2019-06-15T23:04:47.641Z,99129.12
2019-06-15T23:07:16.830Z,99136.70
2019-06-15T23:09:46.780Z,99141.86
2019-06-15T23:12:16.429Z,99151.60
2019-06-15T23:14:46.579Z,99144.06
2019-06-15T23:17:16.187Z,99147.37
2019-06-15T23:19:46.088Z,99149.11
2019-06-15T23:22:17.138Z,99149.27
2019-06-15T23:24:48.136Z,99152.43
2019-06-15T23:27:17.324Z,99136.81
2019-06-15T23:29:47.188Z,99143.77
2019-06-15T23:32:17.023Z,99152.05
2019-06-15T23:34:46.406Z,99155.56
2019-06-15T23:37:17.638Z,99162.49
2019-06-15T23:40:07.432Z,99169.64
2019-06-15T23:42:36.741Z,99170.44
2019-06-15T23:45:06.937Z,99176.80
2019-06-15T23:47:36.960Z,99171.03
2019-06-15T23:50:06.821Z,99176.59
2019-06-15T23:52:36.588Z,99177.50
2019-06-15T23:55:06.977Z,99173.70
2019-06-15T23:57:36.938Z,99168.52
